N152CD KSYR-KLGA
Flight info
| Callsign | N152CD |
|---|---|
| Flight time | N/A |
| Altitude | 17000 |
| Route | SYR T634 RAHKS VADDR1 |
| Aircraft | C750/M-SBDE3FGHRWXY/S |
Departure
| Time | 2026-04-20 16:14 |
|---|---|
| Airport | Syracuse Hancock International Airport (KSYR) |
Arrival
| Time | N/A |
|---|---|
| Airport | LaGuardia Airport (KLGA) |
| Time | Latitude | Longitude | Altitude | Speed | Heading |
|---|---|---|---|---|---|
| 2026-04-20 15:49 | 43.11158 | -76.13062 | 415 ft | 0 kts | 207° |
| 2026-04-20 16:05 | 43.11141 | -76.13071 | 417 ft | 5 kts | 200° |
| 2026-04-20 16:05 | 43.11109 | -76.13087 | 421 ft | 5 kts | 196° |
| 2026-04-20 16:05 | 43.11079 | -76.13086 | 421 ft | 4 kts | 166° |
| 2026-04-20 16:05 | 43.11044 | -76.13057 | 421 ft | 8 kts | 138° |
| 2026-04-20 16:06 | 43.10994 | -76.12996 | 421 ft | 11 kts | 139° |
| 2026-04-20 16:06 | 43.10939 | -76.12912 | 421 ft | 11 kts | 105° |
| 2026-04-20 16:06 | 43.10939 | -76.12809 | 421 ft | 11 kts | 88° |
| 2026-04-20 16:06 | 43.10942 | -76.12688 | 421 ft | 14 kts | 86° |
| 2026-04-20 16:07 | 43.10948 | -76.12536 | 421 ft | 18 kts | 88° |
| 2026-04-20 16:07 | 43.10954 | -76.12351 | 420 ft | 21 kts | 88° |
| 2026-04-20 16:07 | 43.10959 | -76.12155 | 417 ft | 20 kts | 87° |
| 2026-04-20 16:07 | 43.10965 | -76.11966 | 420 ft | 20 kts | 88° |
| 2026-04-20 16:08 | 43.10972 | -76.11782 | 420 ft | 19 kts | 87° |
| 2026-04-20 16:08 | 43.10978 | -76.11606 | 421 ft | 18 kts | 88° |
| 2026-04-20 16:08 | 43.10983 | -76.11438 | 421 ft | 17 kts | 88° |
| 2026-04-20 16:08 | 43.10990 | -76.11258 | 421 ft | 20 kts | 86° |
| 2026-04-20 16:09 | 43.10995 | -76.11056 | 421 ft | 21 kts | 88° |
| 2026-04-20 16:09 | 43.11003 | -76.10856 | 417 ft | 21 kts | 86° |
| 2026-04-20 16:09 | 43.11009 | -76.10662 | 421 ft | 20 kts | 88° |
| 2026-04-20 16:09 | 43.11015 | -76.10477 | 421 ft | 20 kts | 85° |
| 2026-04-20 16:10 | 43.11021 | -76.10296 | 419 ft | 19 kts | 88° |
| 2026-04-20 16:10 | 43.11026 | -76.10122 | 421 ft | 18 kts | 87° |
| 2026-04-20 16:10 | 43.11031 | -76.09955 | 418 ft | 17 kts | 88° |
| 2026-04-20 16:10 | 43.11037 | -76.09794 | 422 ft | 16 kts | 87° |
| 2026-04-20 16:11 | 43.11042 | -76.09650 | 423 ft | 15 kts | 87° |
| 2026-04-20 16:11 | 43.11047 | -76.09508 | 422 ft | 15 kts | 86° |
| 2026-04-20 16:11 | 43.11051 | -76.09366 | 421 ft | 14 kts | 88° |
| 2026-04-20 16:11 | 43.11028 | -76.09272 | 422 ft | 7 kts | 156° |
| 2026-04-20 16:12 | 43.11019 | -76.09270 | 417 ft | 0 kts | 175° |
| 2026-04-20 16:13 | 43.11015 | -76.09269 | 414 ft | 2 kts | 175° |
| 2026-04-20 16:13 | 43.10980 | -76.09266 | 424 ft | 7 kts | 177° |
| 2026-04-20 16:13 | 43.10932 | -76.09297 | 424 ft | 10 kts | 244° |
| 2026-04-20 16:13 | 43.10922 | -76.09505 | 426 ft | 55 kts | 268° |
| 2026-04-20 16:14 | 43.10887 | -76.10476 | 590 ft | 120 kts | 271° |
| 2026-04-20 16:14 | 43.10839 | -76.11604 | 1336 ft | 123 kts | 275° |
| 2026-04-20 16:14 | 43.10836 | -76.12894 | 1757 ft | 149 kts | 274° |
| 2026-04-20 16:14 | 43.10984 | -76.14361 | 2168 ft | 163 kts | 300° |
| 2026-04-20 16:15 | 43.11760 | -76.15492 | 2747 ft | 173 kts | 325° |
| 2026-04-20 16:15 | 43.12992 | -76.16064 | 3194 ft | 205 kts | 353° |
| 2026-04-20 16:15 | 43.14470 | -76.15587 | 3618 ft | 240 kts | 27° |
| 2026-04-20 16:15 | 43.15592 | -76.13765 | 3995 ft | 269 kts | 62° |
| 2026-04-20 16:16 | 43.15817 | -76.11198 | 3989 ft | 276 kts | 95° |
| 2026-04-20 16:16 | 43.15271 | -76.08709 | 4136 ft | 274 kts | 109° |
| 2026-04-20 16:16 | 43.14679 | -76.06255 | 5260 ft | 269 kts | 104° |
| 2026-04-20 16:16 | 43.14263 | -76.03726 | 6149 ft | 276 kts | 99° |
| 2026-04-20 16:17 | 43.13903 | -76.01116 | 7083 ft | 282 kts | 100° |
| 2026-04-20 16:17 | 43.13478 | -75.98476 | 8094 ft | 285 kts | 102° |
| 2026-04-20 16:17 | 43.13022 | -75.95804 | 9122 ft | 291 kts | 102° |
| 2026-04-20 16:17 | 43.12638 | -75.93066 | 10047 ft | 296 kts | 96° |
| 2026-04-20 16:18 | 43.12308 | -75.90194 | 10536 ft | 318 kts | 99° |
| 2026-04-20 16:18 | 43.11778 | -75.87122 | 10654 ft | 346 kts | 109° |
| 2026-04-20 16:18 | 43.10375 | -75.84364 | 10975 ft | 360 kts | 140° |
| 2026-04-20 16:18 | 43.08385 | -75.82336 | 11920 ft | 357 kts | 147° |
| 2026-04-20 16:19 | 43.06303 | -75.80437 | 12653 ft | 363 kts | 148° |
| 2026-04-20 16:19 | 43.04229 | -75.78503 | 13405 ft | 368 kts | 147° |
| 2026-04-20 16:19 | 43.02143 | -75.76462 | 14247 ft | 369 kts | 147° |
| 2026-04-20 16:19 | 43.00037 | -75.74419 | 14897 ft | 374 kts | 148° |
| 2026-04-20 16:20 | 42.97890 | -75.72389 | 15546 ft | 378 kts | 148° |
| 2026-04-20 16:20 | 42.95719 | -75.70332 | 16211 ft | 382 kts | 148° |
| 2026-04-20 16:20 | 42.93533 | -75.68233 | 16877 ft | 387 kts | 148° |
| 2026-04-20 16:20 | 42.91279 | -75.66076 | 16967 ft | 406 kts | 148° |
| 2026-04-20 16:21 | 42.88905 | -75.63825 | 16968 ft | 425 kts | 148° |
| 2026-04-20 16:21 | 42.86432 | -75.61476 | 16975 ft | 439 kts | 147° |
| 2026-04-20 16:21 | 42.83911 | -75.59073 | 16973 ft | 444 kts | 147° |
| 2026-04-20 16:21 | 42.81328 | -75.56769 | 16929 ft | 443 kts | 155° |
| 2026-04-20 16:22 | 42.78410 | -75.55627 | 16922 ft | 435 kts | 177° |